Time;durP1;ratioP1;P1;durP2;ratioP2;P2;SDS_P1;SDS_P2;PMS_P1;PMS_P2;Temp;Humidity;BMP_temperature;BMP_pressure;BME280_temperature;BME280_humidity;BME280_pressure;Samples;Min_cycle;Max_cycle;Signal;HPM_P1;HPM_P2
2022/05/31 00:02:14;;;;;;;4.67;3.50;;;8.40;99.90;;;;;;5043365;28;20184;-85
2022/05/31 00:04:39;;;;;;;4.40;3.93;;;8.40;99.90;;;;;;5042726;28;20178;-85
2022/05/31 00:07:06;;;;;;;5.40;3.40;;;;;;;;;;5042726;28;20210;-85
2022/05/31 00:09:32;;;;;;;5.83;3.67;;;;;;;;;;5042689;28;20189;-85
2022/05/31 00:11:58;;;;;;;4.83;3.60;;;8.40;99.90;;;;;;5043300;28;20202;-85
2022/05/31 00:14:24;;;;;;;6.93;3.87;;;8.40;99.90;;;;;;5044808;28;20210;-85
2022/05/31 00:16:51;;;;;;;6.97;3.70;;;8.40;99.90;;;;;;5043511;28;20206;-85
2022/05/31 00:19:17;;;;;;;5.37;3.20;;;8.30;99.90;;;;;;5043200;28;20170;-86
2022/05/31 00:21:47;;;;;;;3.63;3.33;;;8.30;99.90;;;;;;5040891;28;20174;-86
2022/05/31 00:24:17;;;;;;;4.33;3.30;;;8.30;99.90;;;;;;5040547;28;20180;-86
2022/05/31 00:26:43;;;;;;;9.43;3.33;;;;;;;;;;5042110;28;20210;-86
2022/05/31 00:29:10;;;;;;;3.73;3.43;;;8.10;99.90;;;;;;5039718;28;20182;-86
2022/05/31 00:31:40;;;;;;;3.80;3.23;;;8.10;99.90;;;;;;5039810;28;20249;-86
2022/05/31 00:34:06;;;;;;;4.63;3.37;;;;;;;;;;5041254;28;20193;-86
2022/05/31 00:36:32;;;;;;;5.47;3.67;;;;;;;;;;5039046;28;20190;-86
2022/05/31 00:38:59;;;;;;;4.00;3.47;;;;;;;;;;5040463;28;20970;-86
2022/05/31 00:41:24;;;;;;;4.17;3.77;;;7.90;99.90;;;;;;5040466;28;20184;-86
2022/05/31 00:44:00;;;;;;;4.03;3.60;;;7.90;99.90;;;;;;5040433;28;20637;-86
2022/05/31 00:46:37;;;;;;;3.87;3.27;;;8.00;99.90;;;;;;5042028;28;20255;-86
2022/05/31 00:49:05;;;;;;;3.60;3.30;;;8.00;99.90;;;;;;5041428;28;20565;-86
2022/05/31 00:51:40;;;;;;;5.93;3.60;;;8.10;99.90;;;;;;5041806;28;20503;-86
2022/05/31 00:54:11;;;;;;;6.67;3.90;;;8.00;99.90;;;;;;5045944;28;20512;-86
2022/05/31 00:56:37;;;;;;;4.20;3.80;;;;;;;;;;5058208;28;20196;-85
2022/05/31 00:59:12;;;;;;;7.70;4.27;;;8.10;99.90;;;;;;5058070;28;20218;-86
2022/05/31 01:01:41;;;;;;;6.60;4.00;;;8.10;99.90;;;;;;5051037;28;20174;-86
2022/05/31 01:04:07;;;;;;;3.90;3.50;;;;;;;;;;5039359;28;20177;-86
2022/05/31 01:06:34;;;;;;;5.23;3.60;;;;;;;;;;5039168;28;20421;-86
2022/05/31 01:09:00;;;;;;;6.53;4.10;;;;;;;;;;5038755;28;20224;-86
2022/05/31 01:11:31;;;;;;;5.63;4.83;;;8.10;99.90;;;;;;5039731;28;20232;-86
2022/05/31 01:13:57;;;;;;;7.60;4.23;;;8.10;99.90;;;;;;5038389;28;20221;-86
2022/05/31 01:16:23;;;;;;;4.73;4.17;;;8.10;99.90;;;;;;5038270;28;20678;-87
2022/05/31 01:18:50;;;;;;;6.17;3.97;;;;;;;;;;5038634;28;20185;-87
2022/05/31 01:21:15;;;;;;;5.40;4.60;;;8.10;99.90;;;;;;5038857;28;20272;-87
2022/05/31 01:24:07;;;;;;;5.47;4.23;;;8.10;99.90;;;;;;5039722;28;20644;-87
2022/05/31 01:26:36;;;;;;;5.77;4.53;;;;;;;;;;5028004;28;20217;-87
2022/05/31 01:29:37;;;;;;;6.97;4.73;;;8.10;99.90;;;;;;5040841;28;20273;-87
2022/05/31 01:32:11;;;;;;;7.13;4.37;;;8.10;99.90;;;;;;4924413;29;20217;-87
2022/05/31 01:34:57;;;;;;;7.77;4.13;;;8.10;99.90;;;;;;5019874;28;20214;-87
2022/05/31 01:37:34;;;;;;;6.53;3.93;;;8.10;99.90;;;;;;5037834;28;20202;-87
2022/05/31 01:40:05;;;;;;;5.13;4.03;;;8.10;99.90;;;;;;5039175;28;20166;-87
2022/05/31 01:42:37;;;;;;;6.60;3.43;;;8.00;99.90;;;;;;5038111;28;20248;-87
2022/05/31 01:45:13;;;;;;;4.73;4.13;;;8.10;99.90;;;;;;5038173;28;20171;-87
2022/05/31 01:47:40;;;;;;;3.97;3.50;;;;;;;;;;5038106;28;20208;-86
2022/05/31 01:50:10;;;;;;;4.00;3.67;;;8.20;99.90;;;;;;5056116;28;20410;-86
2022/05/31 01:52:37;;;;;;;4.50;3.43;;;8.10;99.90;;;;;;5059825;28;20146;-87
2022/05/31 01:55:03;;;;;;;5.90;3.43;;;7.80;99.90;;;;;;5060223;28;20221;-87
2022/05/31 01:57:32;;;;;;;4.07;3.37;;;8.00;99.90;;;;;;5057989;28;20216;-87
2022/05/31 02:00:07;;;;;;;4.07;3.60;;;8.20;99.90;;;;;;5044383;28;20483;-87
2022/05/31 02:02:33;;;;;;;4.17;3.60;;;;;;;;;;5038518;28;20162;-87
2022/05/31 02:04:59;;;;;;;3.73;3.27;;;;;;;;;;5037600;28;20417;-85
2022/05/31 02:07:26;;;;;;;6.47;3.83;;;8.00;99.90;;;;;;5040046;28;20478;-86
2022/05/31 02:09:53;;;;;;;3.50;3.17;;;8.00;99.90;;;;;;5039780;28;20186;-86
2022/05/31 02:12:21;;;;;;;3.50;3.10;;;7.90;99.90;;;;;;5041897;28;20244;-85
2022/05/31 02:14:47;;;;;;;2.90;2.70;;;;;;;;;;5040162;28;20209;-86
2022/05/31 02:17:17;;;;;;;3.77;3.30;;;;;;;;;;5040017;28;20194;-85
2022/05/31 02:19:44;;;;;;;3.80;3.20;;;7.80;99.90;;;;;;5040220;28;20224;-85
2022/05/31 02:22:14;;;;;;;3.93;3.30;;;7.70;99.90;;;;;;5039985;28;20520;-85
2022/05/31 02:24:40;;;;;;;7.13;3.90;;;7.80;99.90;;;;;;5038961;28;20277;-86
2022/05/31 02:27:07;;;;;;;5.23;3.50;;;7.80;99.90;;;;;;5037782;28;20265;-85
2022/05/31 02:29:36;;;;;;;7.70;5.30;;;7.90;99.90;;;;;;5037209;28;20178;-86
2022/05/31 02:32:06;;;;;;;17.97;8.43;;;7.90;99.90;;;;;;5036706;28;20630;-85
2022/05/31 02:34:35;;;;;;;16.37;8.33;;;7.90;99.90;;;;;;5038266;28;20671;-85
2022/05/31 02:37:01;;;;;;;20.47;11.47;;;;;;;;;;5041120;28;20198;-86
2022/05/31 02:39:27;;;;;;;28.00;13.43;;;;;;;;;;5040051;28;20195;-86
2022/05/31 02:41:54;;;;;;;25.07;13.57;;;;;;;;;;5038240;28;20197;-86
2022/05/31 02:44:20;;;;;;;40.33;18.47;;;7.90;99.90;;;;;;5037254;28;20186;-86
2022/05/31 02:46:47;;;;;;;28.27;14.40;;;7.90;99.90;;;;;;5039710;28;20202;-86
2022/05/31 02:49:13;;;;;;;18.50;10.40;;;;;;;;;;5037803;28;20549;-85
2022/05/31 02:51:42;;;;;;;38.07;17.03;;;7.90;99.90;;;;;;5038423;28;20193;-86
2022/05/31 02:54:11;;;;;;;34.27;16.33;;;7.90;99.90;;;;;;5038552;28;20212;-86
2022/05/31 02:56:38;;;;;;;12.30;6.63;;;;;;;;;;5040850;28;20199;-86
2022/05/31 02:59:05;;;;;;;11.63;7.00;;;7.90;99.90;;;;;;5039945;28;20539;-85
2022/05/31 03:01:35;;;;;;;9.80;6.50;;;7.90;99.90;;;;;;5054460;28;20218;-85
2022/05/31 03:04:01;;;;;;;28.00;14.73;;;;;;;;;;5049605;28;20193;-86
2022/05/31 03:06:27;;;;;;;21.90;11.83;;;;;;;;;;5037140;28;20198;-87
2022/05/31 03:08:53;;;;;;;13.23;9.27;;;;;;;;;;5037144;28;20297;-86
2022/05/31 03:11:27;;;;;;;14.27;10.07;;;7.80;99.90;;;;;;5040462;28;20178;-86
2022/05/31 03:13:58;;;;;;;8.10;6.77;;;7.70;99.90;;;;;;5036622;28;20208;-86
2022/05/31 03:16:25;;;;;;;6.40;5.07;;;7.80;99.90;;;;;;5037929;28;20198;-86
2022/05/31 03:18:57;;;;;;;4.73;4.23;;;7.80;99.90;;;;;;5037559;28;20460;-86
2022/05/31 03:21:29;;;;;;;6.63;4.13;;;7.80;99.90;;;;;;5037924;28;20162;-86
2022/05/31 03:24:02;;;;;;;4.53;3.80;;;7.80;99.90;;;;;;5036670;28;20520;-86
2022/05/31 03:26:31;;;;;;;4.90;4.23;;;7.80;99.90;;;;;;5036608;28;20806;-86
2022/05/31 03:28:57;;;;;;;4.13;3.70;;;;;;;;;;5037088;28;20182;-86
2022/05/31 03:31:23;;;;;;;5.23;3.70;;;7.60;99.90;;;;;;5040468;28;20401;-85
2022/05/31 03:33:49;;;;;;;4.17;3.43;;;7.70;99.90;;;;;;5038809;28;20210;-86
2022/05/31 03:36:15;;;;;;;4.07;3.03;;;7.60;99.90;;;;;;5046115;28;20216;-85
2022/05/31 03:38:41;;;;;;;5.00;3.50;;;;;;;;;;5050587;28;20182;-86
2022/05/31 03:41:06;;;;;;;5.53;3.63;;;7.70;99.90;;;;;;5034792;28;20206;-86
2022/05/31 03:43:34;;;;;;;5.03;3.97;;;7.70;99.90;;;;;;5037962;28;20174;-86
2022/05/31 03:46:00;;;;;;;3.47;3.07;;;7.70;99.90;;;;;;5038249;28;20178;-86
2022/05/31 03:48:27;;;;;;;5.20;3.00;;;;;;;;;;5039301;28;20171;-86
2022/05/31 03:51:10;;;;;;;3.57;3.17;;;7.80;99.90;;;;;;5038756;28;20593;-87
2022/05/31 03:53:37;;;;;;;3.23;2.93;;;7.80;99.90;;;;;;5039375;28;20714;-86
2022/05/31 03:56:08;;;;;;;4.73;2.63;;;7.70;99.90;;;;;;5040121;28;20531;-86
2022/05/31 03:58:34;;;;;;;4.13;3.10;;;;;;;;;;5039714;28;20202;-84
2022/05/31 04:01:00;;;;;;;3.70;2.80;;;7.70;99.90;;;;;;5041977;28;20289;-85
2022/05/31 04:03:26;;;;;;;5.00;4.13;;;7.70;99.90;;;;;;5038587;28;20178;-86
2022/05/31 04:05:52;;;;;;;9.33;6.90;;;;;;;;;;5037356;28;20189;-86
2022/05/31 04:08:19;;;;;;;9.17;5.97;;;;;;;;;;5038293;28;20629;-86
2022/05/31 04:10:45;;;;;;;11.47;5.57;;;7.70;99.90;;;;;;5038418;28;20450;-86
2022/05/31 04:13:11;;;;;;;12.30;7.43;;;;;;;;;;5038134;28;20269;-86
2022/05/31 04:15:37;;;;;;;4.73;3.83;;;7.70;99.90;;;;;;5037496;28;20182;-86
2022/05/31 04:18:04;;;;;;;3.77;3.40;;;7.80;99.90;;;;;;5038961;28;20191;-86
2022/05/31 04:20:31;;;;;;;3.97;2.60;;;;;;;;;;5038876;28;20187;-86
2022/05/31 04:25:42;;;;;;;3.50;2.60;;;;;;;;;;5037539;28;20209;-86
2022/05/31 04:28:09;;;;;;;6.33;3.20;;;7.80;99.90;;;;;;5035864;28;20429;-86
2022/05/31 04:30:35;;;;;;;4.33;3.47;;;;;;;;;;5037249;28;20174;-86
2022/05/31 04:33:01;;;;;;;3.63;2.93;;;7.80;99.90;;;;;;5037665;28;20410;-86
2022/05/31 04:35:27;;;;;;;3.37;2.40;;;;;;;;;;5036523;28;20233;-86
2022/05/31 04:37:53;;;;;;;3.47;2.83;;;;;;;;;;5038039;28;20198;-86
2022/05/31 04:40:19;;;;;;;3.20;2.90;;;;;;;;;;5036275;28;20625;-86
2022/05/31 04:42:45;;;;;;;3.53;2.67;;;;;;;;;;5036523;28;20186;-86
2022/05/31 04:45:11;;;;;;;3.20;2.90;;;;;;;;;;5036595;28;20225;-86
2022/05/31 04:47:37;;;;;;;5.17;3.43;;;;;;;;;;5037508;28;20209;-87
2022/05/31 04:50:04;;;;;;;6.43;2.97;;;8.10;99.90;;;;;;5045359;28;20178;-86
2022/05/31 04:52:30;;;;;;;3.77;2.70;;;;;;;;;;5056832;28;20163;-87
2022/05/31 04:54:56;;;;;;;6.27;2.90;;;;;;;;;;5056448;28;20189;-88
2022/05/31 04:57:22;;;;;;;4.73;2.70;;;;;;;;;;5054373;28;20682;-88
2022/05/31 04:59:48;;;;;;;4.53;2.93;;;;;;;;;;5037857;28;20198;-89
2022/05/31 05:02:15;;;;;;;3.87;2.33;;;;;;;;;;5040730;28;20189;-88
2022/05/31 05:04:41;;;;;;;2.43;2.23;;;;;;;;;;5039773;28;20229;-88
2022/05/31 05:07:07;;;;;;;2.60;2.00;;;;;;;;;;5039845;28;20725;-88
2022/05/31 05:09:33;;;;;;;3.63;2.00;;;;;;;;;;5040384;28;20547;-88
2022/05/31 05:11:59;;;;;;;2.87;2.10;;;;;;;;;;5048172;28;20173;-88
2022/05/31 05:14:24;;;;;;;2.40;2.20;;;9.30;99.90;;;;;;5056857;28;20198;-88
2022/05/31 05:16:52;;;;;;;3.80;2.10;;;;;;;;;;5056262;28;20209;-88
2022/05/31 05:19:19;;;;;;;2.73;2.40;;;;;;;;;;5055179;28;20170;-88
2022/05/31 05:21:44;;;;;;;2.10;1.90;;;9.50;99.90;;;;;;5053135;28;20187;-87
2022/05/31 05:24:10;;;;;;;2.00;1.80;;;;;;;;;;5039101;28;20187;-88
2022/05/31 05:26:37;;;;;;;1.93;1.80;;;;;;;;;;5034756;28;20208;-87
2022/05/31 05:31:47;;;;;;;2.63;2.00;;;9.30;99.90;;;;;;5036813;28;20190;-85
2022/05/31 05:34:13;;;;;;;10.40;2.00;;;;;;;;;;5035704;28;20203;-87
2022/05/31 05:36:39;;;;;;;2.70;1.90;;;;;;;;;;5034638;28;20196;-87
2022/05/31 05:39:10;;;;;;;3.23;1.93;;;;;;;;;;5035764;28;20201;-88
2022/05/31 05:41:36;;;;;;;3.87;2.03;;;9.60;99.90;;;;;;5034360;28;20164;-88
2022/05/31 05:44:02;;;;;;;4.73;2.00;;;9.60;99.90;;;;;;5035085;28;20639;-88
2022/05/31 05:46:28;;;;;;;3.03;1.90;;;9.70;99.90;;;;;;5035083;28;20206;-89
2022/05/31 05:48:55;;;;;;;3.20;1.90;;;9.70;99.90;;;;;;5035165;28;20178;-87
2022/05/31 05:51:27;;;;;;;3.10;1.60;;;9.70;99.90;;;;;;5034852;28;20182;-88
2022/05/31 05:53:53;;;;;;;2.13;1.93;;;9.70;99.90;;;;;;5034998;28;20707;-87
2022/05/31 05:56:19;;;;;;;4.67;1.90;;;;;;;;;;5035203;28;20198;-88
2022/05/31 05:58:45;;;;;;;3.90;1.97;;;;;;;;;;5035698;28;20232;-86
2022/05/31 06:01:33;;;;;;;3.10;1.80;;;10.00;99.90;;;;;;5036904;28;20177;-86
2022/05/31 06:04:12;;;;;;;2.13;1.80;;;10.10;99.90;;;;;;5037442;28;20178;-86
2022/05/31 06:06:40;;;;;;;2.10;1.73;;;10.30;99.90;;;;;;5041900;28;20200;-86
2022/05/31 06:09:15;;;;;;;2.07;1.50;;;10.40;99.90;;;;;;5040496;28;20189;-86
2022/05/31 06:11:45;;;;;;;2.33;1.50;;;10.40;99.90;;;;;;5040368;28;20632;-86
2022/05/31 06:14:38;;;;;;;1.80;1.50;;;10.60;99.90;;;;;;5042589;28;20198;-84
2022/05/31 06:17:14;;;;;;;2.77;1.57;;;10.80;99.90;;;;;;5028926;28;20284;-87
2022/05/31 06:19:40;;;;;;;2.70;1.70;;;10.60;99.90;;;;;;5040257;28;20213;-87
2022/05/31 06:22:07;;;;;;;3.67;1.67;;;11.00;99.90;;;;;;5039831;28;20519;-86
2022/05/31 06:24:34;;;;;;;1.73;1.60;;;11.10;99.90;;;;;;5040267;28;20174;-86
2022/05/31 06:27:01;;;;;;;2.33;1.70;;;;;;;;;;5042413;28;20194;-86
2022/05/31 06:29:30;;;;;;;2.23;1.67;;;;;;;;;;5039969;28;20185;-85
2022/05/31 06:31:56;;;;;;;4.37;1.60;;;11.30;99.90;;;;;;5040312;28;20176;-86
2022/05/31 06:34:23;;;;;;;4.47;1.50;;;;;;;;;;5039912;28;20209;-86
2022/05/31 06:36:49;;;;;;;1.87;1.53;;;11.60;99.90;;;;;;5038662;28;20205;-86
2022/05/31 06:39:15;;;;;;;3.87;1.83;;;11.60;99.90;;;;;;5040492;28;20209;-86
2022/05/31 06:41:41;;;;;;;3.70;1.50;;;11.80;99.90;;;;;;5038717;28;20182;-86
2022/05/31 06:44:07;;;;;;;1.50;1.40;;;11.90;99.90;;;;;;5042565;28;20185;-86
2022/05/31 06:46:33;;;;;;;2.47;1.33;;;12.20;99.90;;;;;;5038687;28;20196;-86
2022/05/31 06:49:01;;;;;;;2.07;1.53;;;12.20;99.90;;;;;;5041141;28;20178;-86
2022/05/31 06:57:00;;;;;;;1.90;1.37;;;13.20;99.90;;;;;;5040958;28;20280;-86
2022/05/31 06:59:26;;;;;;;1.20;1.10;;;13.30;99.90;;;;;;5038025;28;20659;-85
2022/05/31 07:01:53;;;;;;;2.27;1.50;;;13.50;99.90;;;;;;5036976;28;20185;-87
2022/05/31 07:04:19;;;;;;;3.33;1.60;;;13.50;99.90;;;;;;5037807;28;20514;-86
2022/05/31 07:06:45;;;;;;;4.10;1.40;;;13.50;99.90;;;;;;5038102;28;20198;-86
2022/05/31 07:09:12;;;;;;;4.13;1.70;;;;;;;;;;5037808;28;20193;-86
2022/05/31 07:11:38;;;;;;;1.73;1.60;;;14.00;99.90;;;;;;5038259;28;20252;-86
2022/05/31 07:14:04;;;;;;;2.03;1.60;;;13.80;99.90;;;;;;5037513;28;20228;-87
2022/05/31 07:16:30;;;;;;;3.90;2.27;;;14.30;99.90;;;;;;5039337;28;20190;-87
2022/05/31 07:18:56;;;;;;;2.07;1.60;;;14.30;99.90;;;;;;5036381;28;20231;-86
2022/05/31 07:21:23;;;;;;;3.47;1.40;;;14.40;99.90;;;;;;5036250;28;20632;-86
2022/05/31 07:23:49;;;;;;;2.13;1.40;;;14.40;99.90;;;;;;5037911;28;20636;-87
2022/05/31 07:26:14;;;;;;;4.10;1.60;;;14.50;99.90;;;;;;5036872;28;20229;-86
2022/05/31 07:28:40;;;;;;;2.53;1.30;;;;;;;;;;5037238;28;20186;-87
2022/05/31 07:31:07;;;;;;;1.53;1.23;;;14.70;99.90;;;;;;5038049;28;20659;-85
2022/05/31 07:33:35;;;;;;;3.67;1.20;;;14.80;99.90;;;;;;5038256;28;20246;-86
2022/05/31 07:36:03;;;;;;;2.27;1.40;;;15.00;99.90;;;;;;5038578;28;20248;-86
2022/05/31 07:38:29;;;;;;;1.27;1.10;;;15.00;99.90;;;;;;5038339;28;20178;-86
2022/05/31 07:40:55;;;;;;;1.93;1.30;;;15.10;99.90;;;;;;5039311;28;20174;-85
2022/05/31 07:43:21;;;;;;;2.37;1.33;;;15.10;99.90;;;;;;5039790;28;20523;-86
2022/05/31 07:45:46;;;;;;;1.83;1.30;;;15.20;99.90;;;;;;5039008;28;20178;-85
2022/05/31 07:48:12;;;;;;;2.20;1.20;;;15.30;99.90;;;;;;5038465;28;20212;-85
2022/05/31 07:50:38;;;;;;;2.60;1.13;;;15.40;99.90;;;;;;5039845;28;20585;-85
2022/05/31 07:53:04;;;;;;;1.20;1.10;;;15.60;99.90;;;;;;5039572;28;20174;-87
2022/05/31 07:55:31;;;;;;;2.77;1.43;;;15.80;99.90;;;;;;5038709;28;20635;-86
2022/05/31 08:00:42;;;;;;;3.90;1.13;;;16.00;99.90;;;;;;5040061;28;20540;-86
2022/05/31 08:03:08;;;;;;;2.00;1.20;;;16.10;99.90;;;;;;5039126;28;20182;-85
2022/05/31 08:05:40;;;;;;;4.97;1.60;;;16.20;99.90;;;;;;5038290;28;20182;-86
2022/05/31 08:08:07;;;;;;;3.60;1.40;;;16.40;99.90;;;;;;5038912;28;20225;-86
2022/05/31 08:10:33;;;;;;;1.60;1.20;;;16.50;99.90;;;;;;5038214;28;20174;-86
2022/05/31 08:12:58;;;;;;;2.33;1.47;;;16.70;99.90;;;;;;5038026;28;20178;-85
2022/05/31 08:15:24;;;;;;;2.87;1.50;;;16.90;99.90;;;;;;5039390;28;20166;-85
2022/05/31 08:17:50;;;;;;;2.37;1.20;;;17.20;99.90;;;;;;5037875;28;20199;-86
2022/05/31 08:20:16;;;;;;;1.70;1.30;;;17.40;99.90;;;;;;5038619;28;20659;-84
2022/05/31 08:22:43;;;;;;;4.57;1.70;;;17.60;99.90;;;;;;5037587;28;20183;-85
2022/05/31 08:25:09;;;;;;;1.97;1.47;;;17.80;99.90;;;;;;5038426;28;20580;-85
2022/05/31 08:27:36;;;;;;;1.83;1.30;;;18.00;99.90;;;;;;5037391;28;20747;-85
2022/05/31 08:30:04;;;;;;;2.93;1.50;;;18.30;99.90;;;;;;5036353;28;20552;-85
2022/05/31 08:32:31;;;;;;;1.80;1.50;;;18.60;99.90;;;;;;5036920;28;20551;-86
2022/05/31 08:34:56;;;;;;;4.30;1.30;;;18.60;99.90;;;;;;5036579;28;20242;-86
2022/05/31 08:37:22;;;;;;;3.87;1.27;;;18.70;99.90;;;;;;5037606;28;20193;-85
2022/05/31 08:39:48;;;;;;;2.80;1.20;;;18.80;99.90;;;;;;5037398;28;20256;-85
2022/05/31 08:42:19;;;;;;;2.70;1.20;;;18.80;99.90;;;;;;5037168;28;20204;-85
2022/05/31 08:45:11;;;;;;;1.07;0.97;;;19.10;99.90;;;;;;5035874;28;20182;-85
2022/05/31 08:47:43;;;;;;;4.73;1.43;;;19.30;99.90;;;;;;5036059;28;20201;-85
2022/05/31 08:53:22;;;;;;;2.33;1.20;;;19.30;99.90;;;;;;5036849;28;20654;-85
2022/05/31 08:59:04;;;;;;;2.17;1.03;;;19.70;99.90;;;;;;5036722;28;20202;-85
2022/05/31 09:01:55;;;;;;;2.13;1.20;;;19.90;99.90;;;;;;5041187;28;20175;-85
2022/05/31 09:04:36;;;;;;;2.73;1.27;;;20.00;99.90;;;;;;5042501;28;20222;-85
2022/05/31 09:07:07;;;;;;;5.60;1.40;;;19.70;99.90;;;;;;5040342;28;20656;-85
2022/05/31 09:09:51;;;;;;;1.77;1.07;;;19.70;99.90;;;;;;5039739;28;20159;-85
2022/05/31 09:12:32;;;;;;;2.33;1.20;;;19.90;99.90;;;;;;5038354;28;20201;-85
2022/05/31 09:15:04;;;;;;;1.57;1.37;;;20.20;99.80;;;;;;5037984;28;20193;-85
2022/05/31 09:17:58;;;;;;;3.07;1.00;;;20.60;97.30;;;;;;5040235;28;20201;-85
2022/05/31 09:20:35;;;;;;;1.83;1.03;;;20.50;94.30;;;;;;5038954;28;20192;-85
2022/05/31 09:23:01;;;;;;;3.40;1.27;;;20.60;94.50;;;;;;5038185;28;20197;-85
2022/05/31 09:25:37;;;;;;;2.70;1.57;;;20.70;91.80;;;;;;5037340;28;20180;-85
2022/05/31 09:28:11;;;;;;;3.10;1.20;;;20.90;93.80;;;;;;5038933;28;20206;-84
2022/05/31 09:30:42;;;;;;;3.13;1.13;;;21.20;91.30;;;;;;5039826;28;20154;-84
2022/05/31 09:33:23;;;;;;;2.77;1.47;;;21.60;90.90;;;;;;5037852;28;20201;-85
2022/05/31 09:36:15;;;;;;;1.80;1.10;;;21.80;90.90;;;;;;5038297;28;20159;-85
2022/05/31 09:38:56;;;;;;;1.63;1.10;;;21.60;91.80;;;;;;5033729;28;20242;-85
2022/05/31 09:41:35;;;;;;;1.57;1.30;;;21.20;90.60;;;;;;5042543;28;20180;-85
2022/05/31 09:44:10;;;;;;;3.27;1.50;;;20.80;90.00;;;;;;5041572;28;20460;-87
2022/05/31 09:46:54;;;;;;;4.03;1.40;;;20.40;89.60;;;;;;5041437;28;20668;-85
2022/05/31 09:49:37;;;;;;;3.80;1.23;;;20.50;90.90;;;;;;5042142;28;20238;-86
2022/05/31 09:52:37;;;;;;;4.40;1.53;;;21.10;90.70;;;;;;5042106;28;20164;-85
2022/05/31 09:58:14;;;;;;;5.93;1.73;;;21.20;87.60;;;;;;5044738;28;20233;-84
2022/05/31 10:00:57;;;;;;;4.27;1.43;;;21.60;88.10;;;;;;5043927;28;20189;-85
2022/05/31 10:03:44;;;;;;;4.00;1.67;;;21.60;90.20;;;;;;5046526;28;20598;-85
2022/05/31 10:06:16;;;;;;;3.57;1.40;;;22.00;86.00;;;;;;5044192;28;20215;-84
2022/05/31 10:08:43;;;;;;;8.40;1.60;;;21.90;83.60;;;;;;5044027;28;20183;-86
2022/05/31 10:11:29;;;;;;;3.10;1.40;;;22.00;81.60;;;;;;5043002;28;20647;-84
2022/05/31 10:14:04;;;;;;;3.20;1.20;;;22.40;82.50;;;;;;5040490;28;20216;-84
2022/05/31 10:16:35;;;;;;;2.97;1.17;;;22.00;78.60;;;;;;5043599;28;20676;-84
2022/05/31 10:19:04;;;;;;;2.00;1.10;;;21.40;80.50;;;;;;5041609;28;20179;-85
2022/05/31 10:21:41;;;;;;;1.37;1.10;;;21.00;84.40;;;;;;5042493;28;20265;-85
2022/05/31 10:24:19;;;;;;;3.67;1.33;;;21.50;86.50;;;;;;5044583;28;20176;-84
2022/05/31 10:27:05;;;;;;;3.87;1.40;;;22.40;86.50;;;;;;5044921;28;20203;-85
2022/05/31 10:29:45;;;;;;;1.17;1.07;;;23.00;83.20;;;;;;5045222;28;20188;-85
2022/05/31 10:32:28;;;;;;;2.07;1.37;;;23.60;81.50;;;;;;5046009;28;20178;-85
2022/05/31 10:35:24;;;;;;;1.50;1.10;;;24.00;83.00;;;;;;5044260;28;20613;-84
2022/05/31 10:38:04;;;;;;;4.27;1.20;;;24.30;82.00;;;;;;5045842;28;20195;-83
2022/05/31 10:41:02;;;;;;;4.70;1.10;;;24.30;77.00;;;;;;5044741;28;20163;-85
2022/05/31 10:43:39;;;;;;;1.80;1.10;;;24.30;77.50;;;;;;5044706;28;20212;-86
2022/05/31 10:46:17;;;;;;;2.03;1.30;;;24.50;73.90;;;;;;5046409;28;20224;-84
2022/05/31 10:48:48;;;;;;;2.83;1.10;;;24.40;76.60;;;;;;5047661;28;20186;-83
2022/05/31 10:51:45;;;;;;;2.67;1.07;;;24.10;74.60;;;;;;5045868;28;20602;-85
2022/05/31 10:54:44;;;;;;;1.40;0.90;;;24.00;78.40;;;;;;5046069;28;20198;-84
2022/05/31 10:57:29;;;;;;;1.30;1.10;;;23.70;68.20;;;;;;5045707;28;20189;-85
2022/05/31 11:00:24;;;;;;;7.00;1.20;;;22.90;70.90;;;;;;5046112;28;20272;-87
2022/05/31 11:03:24;;;;;;;2.30;0.90;;;22.30;70.30;;;;;;5045073;28;20185;-84
2022/05/31 11:06:07;;;;;;;2.27;1.17;;;22.00;71.60;;;;;;5050368;28;20179;-84
2022/05/31 11:12:09;;;;;;;2.43;1.20;;;22.20;73.90;;;;;;5043909;28;20592;-82
2022/05/31 11:14:59;;;;;;;1.33;1.00;;;22.60;76.90;;;;;;5045074;28;20283;-82
2022/05/31 11:17:57;;;;;;;3.60;1.10;;;22.50;74.30;;;;;;5048347;28;20217;-82
2022/05/31 11:20:33;;;;;;;5.93;1.33;;;22.50;79.30;;;;;;5046381;28;20176;-83
2022/05/31 11:23:17;;;;;;;2.10;1.20;;;22.60;76.90;;;;;;5046373;28;20175;-83
2022/05/31 11:26:14;;;;;;;1.97;1.10;;;22.80;78.70;;;;;;5048038;28;20175;-84
2022/05/31 11:28:49;;;;;;;4.57;1.00;;;23.10;86.50;;;;;;5041784;28;20193;-83
2022/05/31 11:31:34;;;;;;;8.10;1.37;;;23.30;74.10;;;;;;5048026;28;20183;-84
2022/05/31 11:34:09;;;;;;;2.10;1.10;;;22.90;73.50;;;;;;5048929;28;20239;-81
2022/05/31 11:36:48;;;;;;;2.43;1.20;;;22.50;75.00;;;;;;5043533;28;20202;-84
2022/05/31 11:39:32;;;;;;;1.40;1.03;;;22.20;75.40;;;;;;5044181;28;20244;-82
2022/05/31 11:42:19;;;;;;;2.03;0.93;;;22.10;73.90;;;;;;5042532;28;20205;-82
2022/05/31 11:45:08;;;;;;;1.40;1.00;;;22.00;74.40;;;;;;5040401;28;20182;-81
2022/05/31 11:47:44;;;;;;;2.23;1.30;;;22.00;76.20;;;;;;5040333;28;20202;-81
2022/05/31 11:50:27;;;;;;;1.93;1.10;;;21.90;74.60;;;;;;5040508;28;20167;-81
2022/05/31 11:53:23;;;;;;;5.83;1.20;;;21.70;74.70;;;;;;5037787;28;20178;-81
2022/05/31 11:55:50;;;;;;;6.43;1.27;;;21.50;77.90;;;;;;5037185;28;20536;-86
2022/05/31 11:58:33;;;;;;;2.13;1.23;;;21.50;78.40;;;;;;5035301;28;20178;-83
2022/05/31 12:01:01;;;;;;;2.53;1.30;;;21.30;77.50;;;;;;5033561;28;20261;-84
2022/05/31 12:03:41;;;;;;;4.73;1.27;;;21.20;76.60;;;;;;5043185;28;20221;-83
2022/05/31 12:06:31;;;;;;;3.97;1.63;;;20.70;75.70;;;;;;5042803;28;20182;-82
2022/05/31 12:09:00;;;;;;;3.63;1.37;;;20.70;80.10;;;;;;5042360;28;20189;-78
2022/05/31 12:11:37;;;;;;;1.93;1.23;;;20.60;75.40;;;;;;5040783;28;20705;-80
2022/05/31 12:14:05;;;;;;;2.43;1.33;;;20.60;77.30;;;;;;5043656;28;20204;-81
2022/05/31 12:16:31;;;;;;;2.23;1.30;;;20.50;75.70;;;;;;5043532;28;20194;-81
2022/05/31 12:19:02;;;;;;;3.90;1.50;;;20.60;78.90;;;;;;5043989;28;20186;-79
2022/05/31 12:21:41;;;;;;;4.00;1.57;;;20.60;78.00;;;;;;5043132;28;20250;-82
2022/05/31 12:24:18;;;;;;;5.97;1.30;;;20.50;80.40;;;;;;5043644;28;20180;-82
2022/05/31 12:27:15;;;;;;;1.67;1.10;;;20.50;80.80;;;;;;5043834;28;20203;-84
2022/05/31 12:30:00;;;;;;;1.87;1.30;;;20.60;82.00;;;;;;5044714;28;20266;-82
2022/05/31 12:32:31;;;;;;;4.37;1.30;;;20.40;79.40;;;;;;5043310;28;20213;-82
2022/05/31 12:35:03;;;;;;;6.63;1.67;;;20.40;80.50;;;;;;5044121;28;20233;-84
2022/05/31 12:37:51;;;;;;;3.00;1.17;;;20.30;76.60;;;;;;5040352;28;20197;-84
2022/05/31 12:40:26;;;;;;;2.70;1.53;;;20.20;78.40;;;;;;5040428;28;20528;-83
2022/05/31 12:42:52;;;;;;;2.30;1.40;;;20.30;79.50;;;;;;5045479;28;20158;-84
2022/05/31 12:45:24;;;;;;;3.03;1.30;;;20.30;81.10;;;;;;5045605;28;20188;-85
2022/05/31 12:47:58;;;;;;;11.47;1.70;;;20.20;81.60;;;;;;5043829;28;20194;-85
2022/05/31 12:50:47;;;;;;;1.10;0.90;;;20.20;83.30;;;;;;5044703;28;20220;-85
2022/05/31 12:53:23;;;;;;;3.40;1.13;;;20.10;80.40;;;;;;5046620;28;20257;-86
2022/05/31 12:55:48;;;;;;;4.37;1.40;;;20.00;80.30;;;;;;5044883;28;20256;-85
2022/05/31 12:58:35;;;;;;;3.83;1.43;;;19.80;81.40;;;;;;5043644;28;20202;-85
2022/05/31 13:01:24;;;;;;;6.23;1.40;;;19.60;81.60;;;;;;5042376;28;20182;-84
2022/05/31 13:03:50;;;;;;;3.77;1.40;;;19.50;80.70;;;;;;5026998;28;20214;-84
2022/05/31 13:06:21;;;;;;;2.30;1.50;;;19.20;84.80;;;;;;5047523;28;20203;-83
2022/05/31 13:08:52;;;;;;;5.17;1.60;;;19.20;85.40;;;;;;5052753;28;20179;-83
2022/05/31 13:20:19;;;;;;;3.70;1.40;;;18.70;86.10;;;;;;5040084;28;20163;-85
2022/05/31 13:22:50;;;;;;;3.10;1.40;;;18.60;87.50;;;;;;5038894;28;20260;-85
2022/05/31 13:25:28;;;;;;;3.97;1.73;;;18.40;83.20;;;;;;5040232;28;20172;-85
2022/05/31 13:28:00;;;;;;;2.30;1.30;;;18.20;83.00;;;;;;5038140;28;20217;-80
2022/05/31 13:30:29;;;;;;;2.87;1.83;;;18.10;85.10;;;;;;5037236;28;20657;-82
2022/05/31 13:32:56;;;;;;;1.87;1.23;;;18.10;83.90;;;;;;5039106;28;20176;-82
2022/05/31 13:35:26;;;;;;;3.00;1.33;;;18.00;88.50;;;;;;5038611;28;20573;-82
2022/05/31 13:38:08;;;;;;;4.17;1.63;;;17.90;89.40;;;;;;5038462;28;20201;-81
2022/05/31 13:40:51;;;;;;;3.33;1.87;;;17.80;89.00;;;;;;5039334;28;20179;-82
2022/05/31 13:43:31;;;;;;;1.90;1.23;;;17.80;91.00;;;;;;5039211;28;20192;-82
2022/05/31 13:46:02;;;;;;;2.63;1.10;;;17.80;90.30;;;;;;5040796;28;20523;-82
2022/05/31 13:48:32;;;;;;;2.50;1.33;;;17.80;91.10;;;;;;5039928;28;20668;-83
2022/05/31 13:51:01;;;;;;;3.60;1.20;;;17.70;91.60;;;;;;5040555;28;20171;-82
2022/05/31 13:53:35;;;;;;;3.03;1.47;;;17.70;92.10;;;;;;5040560;28;20205;-82
2022/05/31 13:56:01;;;;;;;1.93;1.30;;;17.50;91.10;;;;;;5039552;28;20523;-82
2022/05/31 13:58:34;;;;;;;5.00;1.50;;;17.50;91.70;;;;;;5041376;28;20175;-81
2022/05/31 14:01:03;;;;;;;5.37;1.60;;;17.50;91.40;;;;;;5041487;28;20206;-83
2022/05/31 14:03:40;;;;;;;1.57;1.30;;;17.50;92.50;;;;;;5045988;28;20277;-87
2022/05/31 14:06:13;;;;;;;3.30;1.33;;;17.60;91.50;;;;;;5038591;28;20297;-86
2022/05/31 14:08:41;;;;;;;2.20;1.40;;;17.60;92.10;;;;;;5040247;28;20681;-85
2022/05/31 14:11:15;;;;;;;2.47;1.60;;;17.70;93.50;;;;;;5039403;28;20187;-84